sensor_id;sensor_type;location;lat;lon;timestamp;temperature;humidity
13610;DHT22;6876;50.788;4.940;2023-04-05T00:00:46;2.20;99.90
13610;DHT22;6876;50.788;4.940;2023-04-05T00:03:33;2.20;99.90
13610;DHT22;6876;50.788;4.940;2023-04-05T00:06:21;2.30;99.90
13610;DHT22;6876;50.788;4.940;2023-04-05T00:09:11;2.40;99.90
13610;DHT22;6876;50.788;4.940;2023-04-05T00:11:58;2.40;99.90
13610;DHT22;6876;50.788;4.940;2023-04-05T00:14:47;2.30;99.90
13610;DHT22;6876;50.788;4.940;2023-04-05T00:17:34;2.20;99.90
13610;DHT22;6876;50.788;4.940;2023-04-05T00:20:21;2.20;99.90
13610;DHT22;6876;50.788;4.940;2023-04-05T00:23:09;2.20;99.90
13610;DHT22;6876;50.788;4.940;2023-04-05T00:25:56;2.20;99.90
13610;DHT22;6876;50.788;4.940;2023-04-05T00:28:43;2.10;99.90
13610;DHT22;6876;50.788;4.940;2023-04-05T00:31:31;2.00;99.90
13610;DHT22;6876;50.788;4.940;2023-04-05T00:34:18;2.00;99.90
13610;DHT22;6876;50.788;4.940;2023-04-05T00:37:06;1.90;99.90
13610;DHT22;6876;50.788;4.940;2023-04-05T00:39:53;1.90;99.90
13610;DHT22;6876;50.788;4.940;2023-04-05T00:42:42;1.90;99.90
13610;DHT22;6876;50.788;4.940;2023-04-05T00:45:29;2.00;99.90
13610;DHT22;6876;50.788;4.940;2023-04-05T00:48:18;2.00;99.90
13610;DHT22;6876;50.788;4.940;2023-04-05T00:51:05;2.10;99.90
13610;DHT22;6876;50.788;4.940;2023-04-05T00:53:56;1.90;99.90
13610;DHT22;6876;50.788;4.940;2023-04-05T00:56:43;1.80;99.90
13610;DHT22;6876;50.788;4.940;2023-04-05T00:59:30;1.80;99.90
13610;DHT22;6876;50.788;4.940;2023-04-05T01:02:23;1.70;99.90
13610;DHT22;6876;50.788;4.940;2023-04-05T01:05:24;1.50;99.90
13610;DHT22;6876;50.788;4.940;2023-04-05T01:08:19;1.50;99.90
13610;DHT22;6876;50.788;4.940;2023-04-05T01:11:08;1.40;99.90
13610;DHT22;6876;50.788;4.940;2023-04-05T01:13:59;1.40;99.90
13610;DHT22;6876;50.788;4.940;2023-04-05T01:16:46;1.40;99.90
13610;DHT22;6876;50.788;4.940;2023-04-05T01:19:34;1.30;99.90
13610;DHT22;6876;50.788;4.940;2023-04-05T01:23:11;1.20;99.90
13610;DHT22;6876;50.788;4.940;2023-04-05T01:26:32;1.20;99.90
13610;DHT22;6876;50.788;4.940;2023-04-05T01:29:45;1.10;99.90
13610;DHT22;6876;50.788;4.940;2023-04-05T01:32:45;1.00;99.90
13610;DHT22;6876;50.788;4.940;2023-04-05T01:35:38;1.00;99.90
13610;DHT22;6876;50.788;4.940;2023-04-05T01:38:27;1.10;99.90
13610;DHT22;6876;50.788;4.940;2023-04-05T01:41:15;1.10;99.90
13610;DHT22;6876;50.788;4.940;2023-04-05T01:44:03;1.10;99.90
13610;DHT22;6876;50.788;4.940;2023-04-05T01:46:51;1.10;99.90
13610;DHT22;6876;50.788;4.940;2023-04-05T01:49:38;1.20;99.90
13610;DHT22;6876;50.788;4.940;2023-04-05T01:52:26;1.30;99.90
13610;DHT22;6876;50.788;4.940;2023-04-05T01:55:13;1.40;99.90
13610;DHT22;6876;50.788;4.940;2023-04-05T01:58:00;1.30;99.90
13610;DHT22;6876;50.788;4.940;2023-04-05T02:00:47;1.20;99.90
13610;DHT22;6876;50.788;4.940;2023-04-05T02:03:36;1.00;99.90
13610;DHT22;6876;50.788;4.940;2023-04-05T02:06:23;0.90;99.90
13610;DHT22;6876;50.788;4.940;2023-04-05T02:09:11;0.90;99.90
13610;DHT22;6876;50.788;4.940;2023-04-05T02:11:58;0.70;99.90
13610;DHT22;6876;50.788;4.940;2023-04-05T02:14:46;0.70;99.90
13610;DHT22;6876;50.788;4.940;2023-04-05T02:17:33;0.70;99.90
13610;DHT22;6876;50.788;4.940;2023-04-05T02:20:25;0.60;99.90
13610;DHT22;6876;50.788;4.940;2023-04-05T02:23:12;0.60;99.90
13610;DHT22;6876;50.788;4.940;2023-04-05T02:25:59;0.60;99.90
13610;DHT22;6876;50.788;4.940;2023-04-05T02:28:46;0.60;99.90
13610;DHT22;6876;50.788;4.940;2023-04-05T02:31:34;0.60;99.90
13610;DHT22;6876;50.788;4.940;2023-04-05T02:34:21;0.70;99.90
13610;DHT22;6876;50.788;4.940;2023-04-05T02:37:09;0.80;99.90
13610;DHT22;6876;50.788;4.940;2023-04-05T02:39:56;0.80;99.90
13610;DHT22;6876;50.788;4.940;2023-04-05T02:42:44;0.80;99.90
13610;DHT22;6876;50.788;4.940;2023-04-05T02:45:31;0.70;99.90
13610;DHT22;6876;50.788;4.940;2023-04-05T02:48:18;0.70;99.90
13610;DHT22;6876;50.788;4.940;2023-04-05T02:51:05;0.70;99.90
13610;DHT22;6876;50.788;4.940;2023-04-05T02:53:54;0.70;99.90
13610;DHT22;6876;50.788;4.940;2023-04-05T02:56:41;0.60;99.90
13610;DHT22;6876;50.788;4.940;2023-04-05T02:59:28;0.60;99.90
13610;DHT22;6876;50.788;4.940;2023-04-05T03:02:15;0.50;99.90
13610;DHT22;6876;50.788;4.940;2023-04-05T03:05:03;0.30;99.90
13610;DHT22;6876;50.788;4.940;2023-04-05T03:07:50;0.30;99.90
13610;DHT22;6876;50.788;4.940;2023-04-05T03:10:39;0.50;99.90
13610;DHT22;6876;50.788;4.940;2023-04-05T03:13:29;0.40;99.90
13610;DHT22;6876;50.788;4.940;2023-04-05T03:16:16;0.30;99.90
13610;DHT22;6876;50.788;4.940;2023-04-05T03:19:05;0.30;99.90
13610;DHT22;6876;50.788;4.940;2023-04-05T03:21:53;0.40;99.90
13610;DHT22;6876;50.788;4.940;2023-04-05T03:24:40;0.40;99.90
13610;DHT22;6876;50.788;4.940;2023-04-05T03:27:30;0.50;99.90
13610;DHT22;6876;50.788;4.940;2023-04-05T03:30:17;0.60;99.90
13610;DHT22;6876;50.788;4.940;2023-04-05T03:33:04;0.60;99.90
13610;DHT22;6876;50.788;4.940;2023-04-05T03:35:52;0.40;99.90
13610;DHT22;6876;50.788;4.940;2023-04-05T03:38:39;0.20;99.90
13610;DHT22;6876;50.788;4.940;2023-04-05T03:41:29;0.20;99.90
13610;DHT22;6876;50.788;4.940;2023-04-05T03:44:18;0.20;99.90
13610;DHT22;6876;50.788;4.940;2023-04-05T03:47:05;0.20;99.90
13610;DHT22;6876;50.788;4.940;2023-04-05T03:49:52;0.20;99.90
13610;DHT22;6876;50.788;4.940;2023-04-05T03:52:40;0.30;99.90
13610;DHT22;6876;50.788;4.940;2023-04-05T03:55:27;0.40;99.90
13610;DHT22;6876;50.788;4.940;2023-04-05T03:58:14;0.20;99.90
13610;DHT22;6876;50.788;4.940;2023-04-05T04:01:03;0.20;99.90
13610;DHT22;6876;50.788;4.940;2023-04-05T04:03:51;0.20;99.90
13610;DHT22;6876;50.788;4.940;2023-04-05T04:06:38;0.30;99.90
13610;DHT22;6876;50.788;4.940;2023-04-05T04:09:26;0.30;99.90
13610;DHT22;6876;50.788;4.940;2023-04-05T04:12:14;0.20;99.90
13610;DHT22;6876;50.788;4.940;2023-04-05T04:15:02;0.20;99.90
13610;DHT22;6876;50.788;4.940;2023-04-05T04:17:50;0.20;99.90
13610;DHT22;6876;50.788;4.940;2023-04-05T04:20:38;0.20;99.90
13610;DHT22;6876;50.788;4.940;2023-04-05T04:23:25;0.30;99.90
13610;DHT22;6876;50.788;4.940;2023-04-05T04:26:13;0.20;99.90
13610;DHT22;6876;50.788;4.940;2023-04-05T04:29:01;0.10;99.90
13610;DHT22;6876;50.788;4.940;2023-04-05T04:31:51;0.00;99.90
13610;DHT22;6876;50.788;4.940;2023-04-05T04:34:39;-0.10;99.90
13610;DHT22;6876;50.788;4.940;2023-04-05T04:37:29;-0.10;99.90
13610;DHT22;6876;50.788;4.940;2023-04-05T04:40:16;-0.10;99.90
13610;DHT22;6876;50.788;4.940;2023-04-05T04:43:04;-0.10;99.90
13610;DHT22;6876;50.788;4.940;2023-04-05T04:45:51;0.00;99.90
13610;DHT22;6876;50.788;4.940;2023-04-05T04:48:40;0.10;99.90
13610;DHT22;6876;50.788;4.940;2023-04-05T04:51:29;0.10;99.90
13610;DHT22;6876;50.788;4.940;2023-04-05T04:54:16;0.10;99.90
13610;DHT22;6876;50.788;4.940;2023-04-05T04:57:05;0.10;99.90
13610;DHT22;6876;50.788;4.940;2023-04-05T04:59:53;0.10;99.90
13610;DHT22;6876;50.788;4.940;2023-04-05T05:02:41;0.00;99.90
13610;DHT22;6876;50.788;4.940;2023-04-05T05:05:29;-0.10;99.90
13610;DHT22;6876;50.788;4.940;2023-04-05T05:08:17;0.00;99.90
13610;DHT22;6876;50.788;4.940;2023-04-05T05:11:06;0.10;99.90
13610;DHT22;6876;50.788;4.940;2023-04-05T05:13:53;0.00;99.90
13610;DHT22;6876;50.788;4.940;2023-04-05T05:16:40;-0.20;99.90
13610;DHT22;6876;50.788;4.940;2023-04-05T05:19:28;-0.30;99.90
13610;DHT22;6876;50.788;4.940;2023-04-05T05:22:16;-0.10;99.90
13610;DHT22;6876;50.788;4.940;2023-04-05T05:25:06;-0.10;99.90
13610;DHT22;6876;50.788;4.940;2023-04-05T05:27:54;0.10;99.90
13610;DHT22;6876;50.788;4.940;2023-04-05T05:30:42;0.10;99.90
13610;DHT22;6876;50.788;4.940;2023-04-05T05:33:29;0.10;99.90
13610;DHT22;6876;50.788;4.940;2023-04-05T05:36:16;0.00;99.90
13610;DHT22;6876;50.788;4.940;2023-04-05T05:39:04;0.00;99.90
13610;DHT22;6876;50.788;4.940;2023-04-05T05:41:54;0.10;99.90
13610;DHT22;6876;50.788;4.940;2023-04-05T05:44:41;0.30;99.90
13610;DHT22;6876;50.788;4.940;2023-04-05T05:47:28;0.60;99.90
13610;DHT22;6876;50.788;4.940;2023-04-05T05:50:15;0.70;99.90
13610;DHT22;6876;50.788;4.940;2023-04-05T05:53:05;0.90;99.90
13610;DHT22;6876;50.788;4.940;2023-04-05T05:55:52;1.10;99.90
13610;DHT22;6876;50.788;4.940;2023-04-05T05:58:41;1.50;99.90
13610;DHT22;6876;50.788;4.940;2023-04-05T06:01:28;1.80;99.90
13610;DHT22;6876;50.788;4.940;2023-04-05T06:04:15;2.40;99.90
13610;DHT22;6876;50.788;4.940;2023-04-05T06:07:03;3.50;99.90
13610;DHT22;6876;50.788;4.940;2023-04-05T06:09:51;4.40;99.90
13610;DHT22;6876;50.788;4.940;2023-04-05T06:12:38;5.20;99.90
13610;DHT22;6876;50.788;4.940;2023-04-05T06:15:27;5.70;99.90
13610;DHT22;6876;50.788;4.940;2023-04-05T06:18:14;6.10;99.90
13610;DHT22;6876;50.788;4.940;2023-04-05T06:21:01;6.40;99.90
13610;DHT22;6876;50.788;4.940;2023-04-05T06:23:49;6.70;99.90
13610;DHT22;6876;50.788;4.940;2023-04-05T06:26:36;7.30;99.90
13610;DHT22;6876;50.788;4.940;2023-04-05T06:29:23;7.40;99.90
13610;DHT22;6876;50.788;4.940;2023-04-05T06:32:12;7.70;99.90
13610;DHT22;6876;50.788;4.940;2023-04-05T06:34:59;8.20;99.90
13610;DHT22;6876;50.788;4.940;2023-04-05T06:37:48;8.60;99.90
13610;DHT22;6876;50.788;4.940;2023-04-05T06:40:35;9.00;99.90
13610;DHT22;6876;50.788;4.940;2023-04-05T06:43:23;9.30;99.90
13610;DHT22;6876;50.788;4.940;2023-04-05T06:46:10;9.40;99.90
13610;DHT22;6876;50.788;4.940;2023-04-05T06:49:00;9.70;99.90
13610;DHT22;6876;50.788;4.940;2023-04-05T06:51:47;10.10;1.00
13610;DHT22;6876;50.788;4.940;2023-04-05T06:54:36;10.30;99.90
13610;DHT22;6876;50.788;4.940;2023-04-05T06:57:24;10.70;99.90
13610;DHT22;6876;50.788;4.940;2023-04-05T07:00:13;10.70;99.90
13610;DHT22;6876;50.788;4.940;2023-04-05T07:03:02;11.20;99.90
13610;DHT22;6876;50.788;4.940;2023-04-05T07:05:51;11.50;99.90
13610;DHT22;6876;50.788;4.940;2023-04-05T07:08:39;12.00;68.30
13610;DHT22;6876;50.788;4.940;2023-04-05T07:11:26;12.30;6.10
13610;DHT22;6876;50.788;4.940;2023-04-05T07:14:13;12.60;1.00
13610;DHT22;6876;50.788;4.940;2023-04-05T07:17:00;13.00;1.00
13610;DHT22;6876;50.788;4.940;2023-04-05T07:19:48;13.40;1.00
13610;DHT22;6876;50.788;4.940;2023-04-05T07:22:36;13.90;1.00
13610;DHT22;6876;50.788;4.940;2023-04-05T07:25:24;14.00;1.00
13610;DHT22;6876;50.788;4.940;2023-04-05T07:28:11;14.40;1.00
13610;DHT22;6876;50.788;4.940;2023-04-05T07:30:58;14.70;1.00
13610;DHT22;6876;50.788;4.940;2023-04-05T07:33:45;15.00;1.00
13610;DHT22;6876;50.788;4.940;2023-04-05T07:36:33;15.20;1.00
13610;DHT22;6876;50.788;4.940;2023-04-05T07:39:21;15.50;1.00
13610;DHT22;6876;50.788;4.940;2023-04-05T07:42:09;15.80;1.00
13610;DHT22;6876;50.788;4.940;2023-04-05T07:44:56;16.20;1.00
13610;DHT22;6876;50.788;4.940;2023-04-05T07:47:43;16.60;1.00
13610;DHT22;6876;50.788;4.940;2023-04-05T07:50:31;17.00;1.00
13610;DHT22;6876;50.788;4.940;2023-04-05T07:53:18;17.20;1.00
13610;DHT22;6876;50.788;4.940;2023-04-05T07:56:07;17.60;1.00
13610;DHT22;6876;50.788;4.940;2023-04-05T07:58:55;17.90;1.00
13610;DHT22;6876;50.788;4.940;2023-04-05T08:01:42;18.10;1.00
13610;DHT22;6876;50.788;4.940;2023-04-05T08:04:29;18.10;1.00
13610;DHT22;6876;50.788;4.940;2023-04-05T08:07:16;18.30;1.00
13610;DHT22;6876;50.788;4.940;2023-04-05T08:10:04;18.20;1.00
13610;DHT22;6876;50.788;4.940;2023-04-05T08:12:53;18.80;1.00
13610;DHT22;6876;50.788;4.940;2023-04-05T08:15:40;18.40;1.00
13610;DHT22;6876;50.788;4.940;2023-04-05T08:18:27;18.90;1.00
13610;DHT22;6876;50.788;4.940;2023-04-05T08:21:14;19.50;1.00
13610;DHT22;6876;50.788;4.940;2023-04-05T08:24:02;19.90;1.00
13610;DHT22;6876;50.788;4.940;2023-04-05T08:26:49;20.20;1.00
13610;DHT22;6876;50.788;4.940;2023-04-05T08:29:38;20.50;1.00
13610;DHT22;6876;50.788;4.940;2023-04-05T08:32:25;20.70;1.00
13610;DHT22;6876;50.788;4.940;2023-04-05T08:35:13;21.00;1.00
13610;DHT22;6876;50.788;4.940;2023-04-05T08:38:01;21.10;1.00
13610;DHT22;6876;50.788;4.940;2023-04-05T08:40:48;21.50;1.00
13610;DHT22;6876;50.788;4.940;2023-04-05T08:43:46;21.40;1.00
13610;DHT22;6876;50.788;4.940;2023-04-05T08:46:37;21.30;1.00
13610;DHT22;6876;50.788;4.940;2023-04-05T08:49:24;21.70;1.00
13610;DHT22;6876;50.788;4.940;2023-04-05T08:52:11;21.90;1.00
13610;DHT22;6876;50.788;4.940;2023-04-05T08:54:59;22.40;99.90
13610;DHT22;6876;50.788;4.940;2023-04-05T08:57:49;22.50;99.90
13610;DHT22;6876;50.788;4.940;2023-04-05T09:00:39;23.20;99.90
13610;DHT22;6876;50.788;4.940;2023-04-05T09:03:31;23.20;99.90
13610;DHT22;6876;50.788;4.940;2023-04-05T09:06:21;23.60;99.90
13610;DHT22;6876;50.788;4.940;2023-04-05T09:09:09;23.00;99.90
13610;DHT22;6876;50.788;4.940;2023-04-05T09:11:57;22.90;99.90
13610;DHT22;6876;50.788;4.940;2023-04-05T09:14:44;23.00;99.90
13610;DHT22;6876;50.788;4.940;2023-04-05T09:17:33;23.20;99.90
13610;DHT22;6876;50.788;4.940;2023-04-05T09:20:24;23.70;99.90
13610;DHT22;6876;50.788;4.940;2023-04-05T09:23:11;23.90;99.90
13610;DHT22;6876;50.788;4.940;2023-04-05T09:25:59;23.80;99.90
13610;DHT22;6876;50.788;4.940;2023-04-05T09:28:46;24.10;99.90
13610;DHT22;6876;50.788;4.940;2023-04-05T09:31:35;24.60;99.90
13610;DHT22;6876;50.788;4.940;2023-04-05T09:34:23;24.40;99.90
13610;DHT22;6876;50.788;4.940;2023-04-05T09:37:15;24.20;99.90
13610;DHT22;6876;50.788;4.940;2023-04-05T09:40:05;24.50;99.90
13610;DHT22;6876;50.788;4.940;2023-04-05T09:42:53;24.70;99.90
13610;DHT22;6876;50.788;4.940;2023-04-05T09:45:42;24.00;99.90
13610;DHT22;6876;50.788;4.940;2023-04-05T09:48:45;23.60;99.90
13610;DHT22;6876;50.788;4.940;2023-04-05T09:51:33;23.50;99.90
13610;DHT22;6876;50.788;4.940;2023-04-05T09:54:22;23.10;99.90
13610;DHT22;6876;50.788;4.940;2023-04-05T09:57:09;23.00;99.90
13610;DHT22;6876;50.788;4.940;2023-04-05T09:59:57;23.00;99.90
13610;DHT22;6876;50.788;4.940;2023-04-05T10:02:44;23.00;99.90
13610;DHT22;6876;50.788;4.940;2023-04-05T10:05:32;22.90;99.90
13610;DHT22;6876;50.788;4.940;2023-04-05T10:08:19;21.60;99.90
13610;DHT22;6876;50.788;4.940;2023-04-05T10:11:08;21.10;99.90
13610;DHT22;6876;50.788;4.940;2023-04-05T10:14:00;20.80;99.90
13610;DHT22;6876;50.788;4.940;2023-04-05T10:16:55;20.40;99.90
13610;DHT22;6876;50.788;4.940;2023-04-05T10:19:55;20.00;99.90
13610;DHT22;6876;50.788;4.940;2023-04-05T10:22:56;19.80;99.90
13610;DHT22;6876;50.788;4.940;2023-04-05T10:25:51;19.30;99.90
13610;DHT22;6876;50.788;4.940;2023-04-05T10:28:42;19.60;99.90
13610;DHT22;6876;50.788;4.940;2023-04-05T10:31:42;19.40;99.90
13610;DHT22;6876;50.788;4.940;2023-04-05T10:34:38;19.00;99.90
13610;DHT22;6876;50.788;4.940;2023-04-05T10:37:37;18.50;99.90
13610;DHT22;6876;50.788;4.940;2023-04-05T10:40:31;18.20;99.90
13610;DHT22;6876;50.788;4.940;2023-04-05T10:43:22;18.10;99.90
13610;DHT22;6876;50.788;4.940;2023-04-05T10:46:13;17.90;99.90
13610;DHT22;6876;50.788;4.940;2023-04-05T10:49:11;17.90;99.90
13610;DHT22;6876;50.788;4.940;2023-04-05T10:51:58;17.50;99.90
13610;DHT22;6876;50.788;4.940;2023-04-05T10:54:47;17.40;99.90
13610;DHT22;6876;50.788;4.940;2023-04-05T10:57:36;17.20;99.90
13610;DHT22;6876;50.788;4.940;2023-04-05T11:00:23;17.00;99.90
13610;DHT22;6876;50.788;4.940;2023-04-05T11:03:46;17.10;99.90
13610;DHT22;6876;50.788;4.940;2023-04-05T11:06:33;15.90;99.90
13610;DHT22;6876;50.788;4.940;2023-04-05T11:09:21;15.70;99.90
13610;DHT22;6876;50.788;4.940;2023-04-05T11:12:10;16.20;99.90
13610;DHT22;6876;50.788;4.940;2023-04-05T11:15:27;16.40;99.90
13610;DHT22;6876;50.788;4.940;2023-04-05T11:18:21;16.60;99.90
13610;DHT22;6876;50.788;4.940;2023-04-05T11:21:08;16.60;99.90
13610;DHT22;6876;50.788;4.940;2023-04-05T11:24:00;16.60;99.90
13610;DHT22;6876;50.788;4.940;2023-04-05T11:26:53;16.40;99.90
13610;DHT22;6876;50.788;4.940;2023-04-05T11:29:47;16.40;99.90
13610;DHT22;6876;50.788;4.940;2023-04-05T11:32:40;16.10;99.90
13610;DHT22;6876;50.788;4.940;2023-04-05T11:35:33;16.00;99.90
13610;DHT22;6876;50.788;4.940;2023-04-05T11:38:21;16.00;99.90
13610;DHT22;6876;50.788;4.940;2023-04-05T11:41:13;15.90;99.90
13610;DHT22;6876;50.788;4.940;2023-04-05T11:44:04;15.90;99.90
13610;DHT22;6876;50.788;4.940;2023-04-05T11:46:52;15.40;99.90
13610;DHT22;6876;50.788;4.940;2023-04-05T11:49:39;15.10;99.90
13610;DHT22;6876;50.788;4.940;2023-04-05T11:52:28;15.20;99.90
13610;DHT22;6876;50.788;4.940;2023-04-05T11:55:25;15.30;99.90
13610;DHT22;6876;50.788;4.940;2023-04-05T11:58:14;15.40;99.90
13610;DHT22;6876;50.788;4.940;2023-04-05T12:01:02;15.10;99.90
13610;DHT22;6876;50.788;4.940;2023-04-05T12:03:52;15.10;99.90
13610;DHT22;6876;50.788;4.940;2023-04-05T12:06:40;15.10;99.90
13610;DHT22;6876;50.788;4.940;2023-04-05T12:09:29;15.00;99.90
13610;DHT22;6876;50.788;4.940;2023-04-05T12:12:16;15.10;99.90
13610;DHT22;6876;50.788;4.940;2023-04-05T12:15:05;15.00;99.90
13610;DHT22;6876;50.788;4.940;2023-04-05T12:17:53;15.10;99.90
13610;DHT22;6876;50.788;4.940;2023-04-05T12:20:40;15.20;99.90
13610;DHT22;6876;50.788;4.940;2023-04-05T12:23:28;14.60;99.90
13610;DHT22;6876;50.788;4.940;2023-04-05T12:26:17;14.50;99.90
13610;DHT22;6876;50.788;4.940;2023-04-05T12:29:04;14.50;99.90
13610;DHT22;6876;50.788;4.940;2023-04-05T12:31:51;14.50;99.90
13610;DHT22;6876;50.788;4.940;2023-04-05T12:34:46;14.60;99.90
13610;DHT22;6876;50.788;4.940;2023-04-05T12:37:34;14.50;99.90
13610;DHT22;6876;50.788;4.940;2023-04-05T12:40:22;14.40;99.90
13610;DHT22;6876;50.788;4.940;2023-04-05T12:43:11;14.30;99.90
13610;DHT22;6876;50.788;4.940;2023-04-05T12:46:08;14.40;99.90
13610;DHT22;6876;50.788;4.940;2023-04-05T12:48:55;14.30;99.90
13610;DHT22;6876;50.788;4.940;2023-04-05T12:51:46;14.40;99.90
13610;DHT22;6876;50.788;4.940;2023-04-05T12:54:34;14.40;99.90
13610;DHT22;6876;50.788;4.940;2023-04-05T12:57:29;14.30;99.90
13610;DHT22;6876;50.788;4.940;2023-04-05T13:00:20;14.00;99.90
13610;DHT22;6876;50.788;4.940;2023-04-05T13:03:14;14.00;99.90
13610;DHT22;6876;50.788;4.940;2023-04-05T13:06:02;14.00;99.90
13610;DHT22;6876;50.788;4.940;2023-04-05T13:08:49;13.70;99.90
13610;DHT22;6876;50.788;4.940;2023-04-05T13:11:37;13.80;99.90
13610;DHT22;6876;50.788;4.940;2023-04-05T13:14:24;13.80;99.90
13610;DHT22;6876;50.788;4.940;2023-04-05T13:17:13;13.90;99.90
13610;DHT22;6876;50.788;4.940;2023-04-05T13:20:00;13.80;99.90
13610;DHT22;6876;50.788;4.940;2023-04-05T13:22:47;13.90;99.90
13610;DHT22;6876;50.788;4.940;2023-04-05T13:25:35;13.90;99.90
13610;DHT22;6876;50.788;4.940;2023-04-05T13:28:22;13.80;99.90
13610;DHT22;6876;50.788;4.940;2023-04-05T13:31:10;14.00;99.90
13610;DHT22;6876;50.788;4.940;2023-04-05T13:33:59;14.00;99.90
13610;DHT22;6876;50.788;4.940;2023-04-05T13:36:46;13.90;99.90
13610;DHT22;6876;50.788;4.940;2023-04-05T13:39:34;13.80;99.90
13610;DHT22;6876;50.788;4.940;2023-04-05T13:42:22;13.60;99.90
13610;DHT22;6876;50.788;4.940;2023-04-05T13:45:09;13.50;99.90
13610;DHT22;6876;50.788;4.940;2023-04-05T13:47:57;13.30;99.90
13610;DHT22;6876;50.788;4.940;2023-04-05T13:50:45;13.40;99.90
13610;DHT22;6876;50.788;4.940;2023-04-05T13:53:33;13.70;99.90
13610;DHT22;6876;50.788;4.940;2023-04-05T13:56:20;13.50;99.90
13610;DHT22;6876;50.788;4.940;2023-04-05T13:59:07;13.60;99.90
13610;DHT22;6876;50.788;4.940;2023-04-05T14:01:54;13.70;99.90
13610;DHT22;6876;50.788;4.940;2023-04-05T14:04:41;13.70;99.90
13610;DHT22;6876;50.788;4.940;2023-04-05T14:07:30;13.70;99.90
13610;DHT22;6876;50.788;4.940;2023-04-05T14:10:18;13.80;99.90
13610;DHT22;6876;50.788;4.940;2023-04-05T14:13:06;13.70;99.90
13610;DHT22;6876;50.788;4.940;2023-04-05T14:15:53;13.70;99.90
13610;DHT22;6876;50.788;4.940;2023-04-05T14:18:40;13.70;99.90
13610;DHT22;6876;50.788;4.940;2023-04-05T14:21:28;13.80;99.90
13610;DHT22;6876;50.788;4.940;2023-04-05T14:24:16;13.80;99.90
13610;DHT22;6876;50.788;4.940;2023-04-05T14:27:04;13.80;99.90
13610;DHT22;6876;50.788;4.940;2023-04-05T14:29:51;13.80;99.90
13610;DHT22;6876;50.788;4.940;2023-04-05T14:32:41;13.70;99.90
13610;DHT22;6876;50.788;4.940;2023-04-05T14:35:30;13.60;99.90
13610;DHT22;6876;50.788;4.940;2023-04-05T14:38:17;13.30;99.90
13610;DHT22;6876;50.788;4.940;2023-04-05T14:41:06;13.40;99.90
13610;DHT22;6876;50.788;4.940;2023-04-05T14:43:53;13.50;99.90
13610;DHT22;6876;50.788;4.940;2023-04-05T14:46:41;13.50;99.90
13610;DHT22;6876;50.788;4.940;2023-04-05T14:49:28;13.60;99.90
13610;DHT22;6876;50.788;4.940;2023-04-05T14:52:15;13.60;99.90
13610;DHT22;6876;50.788;4.940;2023-04-05T14:55:03;13.70;99.90
13610;DHT22;6876;50.788;4.940;2023-04-05T14:57:52;13.70;99.90
13610;DHT22;6876;50.788;4.940;2023-04-05T15:00:39;13.70;99.90
13610;DHT22;6876;50.788;4.940;2023-04-05T15:03:26;13.90;99.90
13610;DHT22;6876;50.788;4.940;2023-04-05T15:06:14;13.70;99.90
13610;DHT22;6876;50.788;4.940;2023-04-05T15:09:01;13.50;99.90
13610;DHT22;6876;50.788;4.940;2023-04-05T15:11:49;13.20;99.90
13610;DHT22;6876;50.788;4.940;2023-04-05T15:14:37;13.20;99.90
13610;DHT22;6876;50.788;4.940;2023-04-05T15:17:25;13.00;99.90
13610;DHT22;6876;50.788;4.940;2023-04-05T15:20:12;12.90;99.90
13610;DHT22;6876;50.788;4.940;2023-04-05T15:22:59;12.70;99.90
13610;DHT22;6876;50.788;4.940;2023-04-05T15:25:47;12.70;99.90
13610;DHT22;6876;50.788;4.940;2023-04-05T15:28:35;12.80;99.90
13610;DHT22;6876;50.788;4.940;2023-04-05T15:31:24;12.80;99.90
13610;DHT22;6876;50.788;4.940;2023-04-05T15:34:11;12.90;99.90
13610;DHT22;6876;50.788;4.940;2023-04-05T15:36:58;12.90;99.90
13610;DHT22;6876;50.788;4.940;2023-04-05T15:39:45;12.90;99.90
13610;DHT22;6876;50.788;4.940;2023-04-05T15:42:33;13.00;99.90
13610;DHT22;6876;50.788;4.940;2023-04-05T15:45:20;12.90;99.90
13610;DHT22;6876;50.788;4.940;2023-04-05T15:48:09;12.80;99.90
13610;DHT22;6876;50.788;4.940;2023-04-05T15:50:58;12.90;99.90
13610;DHT22;6876;50.788;4.940;2023-04-05T15:53:45;12.90;99.90
13610;DHT22;6876;50.788;4.940;2023-04-05T15:56:33;12.70;99.90
13610;DHT22;6876;50.788;4.940;2023-04-05T15:59:21;12.60;99.90
13610;DHT22;6876;50.788;4.940;2023-04-05T16:02:08;12.70;99.90
13610;DHT22;6876;50.788;4.940;2023-04-05T16:04:57;12.80;99.90
13610;DHT22;6876;50.788;4.940;2023-04-05T16:07:44;12.90;99.90
13610;DHT22;6876;50.788;4.940;2023-04-05T16:10:31;12.90;99.90
13610;DHT22;6876;50.788;4.940;2023-04-05T16:13:19;13.00;99.90
13610;DHT22;6876;50.788;4.940;2023-04-05T16:16:06;13.00;99.90
13610;DHT22;6876;50.788;4.940;2023-04-05T16:18:53;13.00;99.90
13610;DHT22;6876;50.788;4.940;2023-04-05T16:21:42;12.80;99.90
13610;DHT22;6876;50.788;4.940;2023-04-05T16:24:29;12.70;99.90
13610;DHT22;6876;50.788;4.940;2023-04-05T16:27:18;12.60;99.90
13610;DHT22;6876;50.788;4.940;2023-04-05T16:30:06;12.60;99.90
13610;DHT22;6876;50.788;4.940;2023-04-05T16:32:54;12.40;99.90
13610;DHT22;6876;50.788;4.940;2023-04-05T16:35:41;12.50;99.90
13610;DHT22;6876;50.788;4.940;2023-04-05T16:38:30;12.40;99.90
13610;DHT22;6876;50.788;4.940;2023-04-05T16:41:17;12.30;99.90
13610;DHT22;6876;50.788;4.940;2023-04-05T16:44:04;12.20;99.90
13610;DHT22;6876;50.788;4.940;2023-04-05T16:46:52;12.20;99.90
13610;DHT22;6876;50.788;4.940;2023-04-05T16:49:39;12.10;99.90
13610;DHT22;6876;50.788;4.940;2023-04-05T16:52:26;12.10;99.90
13610;DHT22;6876;50.788;4.940;2023-04-05T16:55:15;12.10;99.90
13610;DHT22;6876;50.788;4.940;2023-04-05T16:58:02;12.00;99.90
13610;DHT22;6876;50.788;4.940;2023-04-05T17:00:49;11.90;99.90
13610;DHT22;6876;50.788;4.940;2023-04-05T17:03:40;11.80;99.90
13610;DHT22;6876;50.788;4.940;2023-04-05T17:06:31;11.80;99.90
13610;DHT22;6876;50.788;4.940;2023-04-05T17:09:19;11.80;99.90
13610;DHT22;6876;50.788;4.940;2023-04-05T17:12:07;11.80;99.90
13610;DHT22;6876;50.788;4.940;2023-04-05T17:14:55;11.70;99.90
13610;DHT22;6876;50.788;4.940;2023-04-05T17:17:42;11.60;99.90
13610;DHT22;6876;50.788;4.940;2023-04-05T17:20:29;11.60;99.90
13610;DHT22;6876;50.788;4.940;2023-04-05T17:23:17;11.70;99.90
13610;DHT22;6876;50.788;4.940;2023-04-05T17:26:04;11.60;99.90
13610;DHT22;6876;50.788;4.940;2023-04-05T17:28:53;11.60;99.90
13610;DHT22;6876;50.788;4.940;2023-04-05T17:31:40;11.50;99.90
13610;DHT22;6876;50.788;4.940;2023-04-05T17:34:29;11.50;99.90
13610;DHT22;6876;50.788;4.940;2023-04-05T17:37:16;11.30;99.90
13610;DHT22;6876;50.788;4.940;2023-04-05T17:40:04;11.30;99.90
13610;DHT22;6876;50.788;4.940;2023-04-05T17:42:52;11.20;99.90
13610;DHT22;6876;50.788;4.940;2023-04-05T17:45:41;11.10;99.90
13610;DHT22;6876;50.788;4.940;2023-04-05T17:48:28;11.00;99.90
13610;DHT22;6876;50.788;4.940;2023-04-05T17:51:17;10.90;99.90
13610;DHT22;6876;50.788;4.940;2023-04-05T17:54:05;10.80;99.90
13610;DHT22;6876;50.788;4.940;2023-04-05T17:56:53;10.60;99.90
13610;DHT22;6876;50.788;4.940;2023-04-05T17:59:41;10.50;99.90
13610;DHT22;6876;50.788;4.940;2023-04-05T18:02:29;10.30;99.90
13610;DHT22;6876;50.788;4.940;2023-04-05T18:05:17;10.20;99.90
13610;DHT22;6876;50.788;4.940;2023-04-05T18:08:04;10.20;99.90
13610;DHT22;6876;50.788;4.940;2023-04-05T18:10:54;10.10;99.90